Time;durP1;ratioP1;P1;durP2;ratioP2;P2;SDS_P1;SDS_P2;PMS_P1;PMS_P2;Temp;Humidity;BMP_temperature;BMP_pressure;BME280_temperature;BME280_humidity;BME280_pressure;Samples;Min_cycle;Max_cycle;Signal;HPM_P1;HPM_P2
2019/04/13 00:00:42;;;;;;;24.5;20;;;;;;;9.01;43.06934;962.662;;;;
2019/04/13 00:03:52;;;;;;;27.2;21.6;;;;;;;9.1;42.70508;962.6595;;;;
2019/04/13 00:07:02;;;;;;;24.8;21.9;;;;;;;9.19;42.80664;962.6456;;;;
2019/04/13 00:10:17;;;;;;;25.5;20.5;;;;;;;9.16;42.83887;962.6197;;;;
2019/04/13 00:13:28;;;;;;;26.7;21;;;;;;;8.91;43.47949;962.5964;;;;
2019/04/13 00:16:38;;;;;;;28.2;22.6;;;;;;;9.04;43.13086;962.5672;;;;
2019/04/13 00:19:48;;;;;;;27.2;22.3;;;;;;;8.72;43.97363;962.6205;;;;
2019/04/13 00:22:59;;;;;;;26.2;22.8;;;;;;;8.9;43.77148;962.585;;;;
2019/04/13 00:26:09;;;;;;;29.2;24.6;;;;;;;9.21;43.14746;962.6641;;;;
2019/04/13 00:29:19;;;;;;;27.4;21.5;;;;;;;9.31;43.0752;962.7253;;;;
2019/04/13 00:32:30;;;;;;;25.8;21.2;;;;;;;9.34;42.40137;962.7059;;;;
2019/04/13 00:35:40;;;;;;;25.8;21.4;;;;;;;9.32;42.79688;962.6449;;;;
2019/04/13 00:38:50;;;;;;;25;21;;;;;;;8.77;43.72168;962.6894;;;;
2019/04/13 00:42:00;;;;;;;28.2;21.5;;;;;;;8.99;43.61621;962.5837;;;;
2019/04/13 00:45:11;;;;;;;27.2;21.8;;;;;;;9.27;43.22363;962.533;;;;
2019/04/13 00:48:21;;;;;;;25.5;22.4;;;;;;;9.26;43.23438;962.5082;;;;
2019/04/13 00:51:31;;;;;;;26;21.6;;;;;;;9.28;43.15527;962.5344;;;;
2019/04/13 00:54:41;;;;;;;28.2;21.8;;;;;;;9.21;43.18262;962.5641;;;;
2019/04/13 00:57:51;;;;;;;27.4;21.9;;;;;;;9.21;43.32227;962.5421;;;;
2019/04/13 01:01:01;;;;;;;27.8;21.9;;;;;;;8.79;44.13281;962.5611;;;;
2019/04/13 01:04:12;;;;;;;26.5;20.9;;;;;;;8.88;44.07227;962.4679;;;;
2019/04/13 01:07:22;;;;;;;27.9;21.1;;;;;;;9;43.96777;962.5555;;;;
2019/04/13 01:10:32;;;;;;;24.6;21.3;;;;;;;9.28;43.55176;962.5916;;;;
2019/04/13 01:13:42;;;;;;;25.5;21.9;;;;;;;9.33;43.43945;962.6268;;;;
2019/04/13 01:16:53;;;;;;;25.6;21.2;;;;;;;9.33;43.46387;962.5564;;;;
2019/04/13 01:20:03;;;;;;;26.3;21.6;;;;;;;9.25;43.73633;962.5003;;;;
2019/04/13 01:23:14;;;;;;;26.2;21.3;;;;;;;8.94;44.48633;962.467;;;;
2019/04/13 01:26:24;;;;;;;28;21.8;;;;;;;9.22;43.37012;962.4158;;;;
2019/04/13 01:29:35;;;;;;;27.8;22.8;;;;;;;9.17;43.72852;962.3588;;;;
2019/04/13 01:32:45;;;;;;;25.1;22;;;;;;;9.09;44.16309;962.4247;;;;
2019/04/13 01:35:55;;;;;;;27.4;22.6;;;;;;;9.2;43.7666;962.3276;;;;
2019/04/13 01:39:05;;;;;;;28.3;23;;;;;;;9.18;43.88086;962.3442;;;;
2019/04/13 01:42:16;;;;;;;27.9;22.2;;;;;;;8.98;43.9541;962.3477;;;;
2019/04/13 01:45:26;;;;;;;26.4;22.9;;;;;;;8.96;44.38379;962.4331;;;;
2019/04/13 01:48:36;;;;;;;27.7;24;;;;;;;9.1;43.88477;962.4014;;;;
2019/04/13 01:51:46;;;;;;;29.2;22.7;;;;;;;9.15;43.97168;962.3014;;;;
2019/04/13 01:54:57;;;;;;;27.3;23.6;;;;;;;9.05;44.4873;962.2311;;;;
2019/04/13 01:58:07;;;;;;;29.7;23.7;;;;;;;9.14;44.3916;962.1507;;;;
2019/04/13 02:08:09;;;;;;;29.4;23.9;;;;;;;9.03;44.46094;962.1828;;;;
2019/04/13 02:11:29;;;;;;;27.1;23.5;;;;;;;8.81;45.43164;962.1717;;;;
2019/04/13 02:14:40;;;;;;;27.4;23.4;;;;;;;8.7;45.55957;962.2115;;;;
2019/04/13 02:17:50;;;;;;;28.2;23.9;;;;;;;8.58;45.83691;962.2458;;;;
2019/04/13 02:21:00;;;;;;;27.9;23.3;;;;;;;8.5;46.24902;962.2898;;;;
2019/04/13 02:24:10;;;;;;;29.5;23.6;;;;;;;8.34;46.25586;962.4147;;;;
2019/04/13 02:27:20;;;;;;;28.8;24;;;;;;;8.28;46.97168;962.3813;;;;
2019/04/13 02:30:30;;;;;;;26.7;23.3;;;;;;;8.31;46.90527;962.3934;;;;
2019/04/13 02:33:41;;;;;;;30;24.4;;;;;;;7.69;48.375;962.3045;;;;
2019/04/13 02:36:51;;;;;;;32.8;24.2;;;;;;;7.95;47.59961;962.2067;;;;
2019/04/13 02:40:01;;;;;;;28;23.9;;;;;;;7.89;48.08203;962.1947;;;;
2019/04/13 02:43:12;;;;;;;28.7;23.7;;;;;;;8.07;47.6709;962.2996;;;;
2019/04/13 02:46:22;;;;;;;29.7;24.2;;;;;;;7.9;48.34082;962.3047;;;;
2019/04/13 02:49:32;;;;;;;31.2;24.7;;;;;;;7.72;48.91309;962.2775;;;;
2019/04/13 02:52:42;;;;;;;28.5;23.6;;;;;;;7.65;48.8252;962.207;;;;
2019/04/13 02:55:52;;;;;;;30.9;24.8;;;;;;;7.72;48.93652;962.2178;;;;
2019/04/13 02:59:02;;;;;;;31.2;24.9;;;;;;;7.55;49.24316;962.1635;;;;
2019/04/13 03:02:12;;;;;;;31;25.4;;;;;;;7.58;49.23633;962.1365;;;;
2019/04/13 03:05:22;;;;;;;30.2;25;;;;;;;7.67;49.24512;962.1097;;;;
2019/04/13 03:08:32;;;;;;;30.1;24.9;;;;;;;7.63;49.1709;962.1846;;;;
2019/04/13 03:11:42;;;;;;;34.6;25.6;;;;;;;7.58;49.31641;962.1117;;;;
2019/04/13 03:14:53;;;;;;;31.2;25.6;;;;;;;7.31;49.88965;962.1158;;;;
2019/04/13 03:18:12;;;;;;;34.5;26.8;;;;;;;7.22;50.34473;962.0526;;;;
2019/04/13 03:21:22;;;;;;;31.9;26.5;;;;;;;7.38;49.99121;962.1177;;;;
2019/04/13 03:24:32;;;;;;;32.6;26.5;;;;;;;7.14;50.5;962;;;;
2019/04/13 03:27:42;;;;;;;32.7;26.8;;;;;;;7.11;50.73926;962.0399;;;;
2019/04/13 03:30:53;;;;;;;32.8;26.7;;;;;;;7.15;50.13867;962.0248;;;;
2019/04/13 03:34:03;;;;;;;34.5;26.9;;;;;;;7.18;50.09668;962.0885;;;;
2019/04/13 03:37:13;;;;;;;38.8;28.5;;;;;;;7.25;49.68652;962.0998;;;;
2019/04/13 03:40:23;;;;;;;32.7;26.6;;;;;;;7.47;49.40918;962.085;;;;
2019/04/13 03:43:33;;;;;;;35;26.9;;;;;;;7.36;50.20996;962.0567;;;;
2019/04/13 03:46:43;;;;;;;33.9;27;;;;;;;7.37;49.67578;962.0282;;;;
2019/04/13 03:49:53;;;;;;;34.4;27.4;;;;;;;7.58;49.0957;962.0858;;;;
2019/04/13 03:53:03;;;;;;;37.1;28.4;;;;;;;7.38;49.48047;962.0439;;;;
2019/04/13 03:56:13;;;;;;;33.2;27;;;;;;;7.41;49.20508;962.017;;;;
2019/04/13 03:59:23;;;;;;;32.3;26.5;;;;;;;6.56;51.51074;961.9548;;;;
2019/04/13 04:07:14;;;;;;;37.9;27.1;;;;;;;6.12;52.81543;961.9294;;;;
2019/04/13 04:10:24;;;;;;;34.2;26.1;;;;;;;6.56;51.61426;961.947;;;;
2019/04/13 04:13:34;;;;;;;33;27;;;;;;;6.81;50.91211;961.9291;;;;
2019/04/13 04:16:44;;;;;;;33.8;27;;;;;;;7.04;50.10352;961.8567;;;;
2019/04/13 04:19:55;;;;;;;36.3;27.6;;;;;;;7.05;49.97656;961.8038;;;;
2019/04/13 04:23:05;;;;;;;35.9;27.4;;;;;;;6.98;50.29395;961.7941;;;;
2019/04/13 04:26:17;;;;;;;33.8;26.9;;;;;;;6.78;50.63184;961.7557;;;;
2019/04/13 04:29:27;;;;;;;34.1;27.3;;;;;;;6.77;50.65332;961.8047;;;;
2019/04/13 04:32:37;;;;;;;36.7;27.3;;;;;;;6.9;50.5166;961.854;;;;
2019/04/13 04:35:47;;;;;;;33.6;27.4;;;;;;;6.99;50.14355;961.8264;;;;
2019/04/13 04:38:57;;;;;;;34;26.7;;;;;;;6.79;51.18945;961.8631;;;;
2019/04/13 04:42:08;;;;;;;36.2;27.5;;;;;;;6.77;50.57129;961.8226;;;;
2019/04/13 04:45:18;;;;;;;36.1;27.9;;;;;;;6.56;51.17285;961.8436;;;;
2019/04/13 04:48:28;;;;;;;38.7;27.7;;;;;;;6.47;51.62695;961.8876;;;;
2019/04/13 04:51:38;;;;;;;32.9;26.9;;;;;;;6.39;51.75586;961.9007;;;;
2019/04/13 04:54:48;;;;;;;35.5;28.1;;;;;;;6.41;52.09473;961.8546;;;;
2019/04/13 04:57:58;;;;;;;35;28.5;;;;;;;6.64;51.27637;961.8344;;;;
2019/04/13 05:01:08;;;;;;;34.5;27.1;;;;;;;6.73;50.88086;961.9063;;;;
2019/04/13 05:04:18;;;;;;;33.2;27.4;;;;;;;6.74;50.77734;961.913;;;;
2019/04/13 05:07:28;;;;;;;34.2;27.4;;;;;;;6.92;50.57813;961.9925;;;;
2019/04/13 05:10:38;;;;;;;34.6;27.4;;;;;;;6.81;51.45801;961.9291;;;;
2019/04/13 05:13:48;;;;;;;33;27.4;;;;;;;7.09;50.30664;961.8833;;;;
2019/04/13 05:16:59;;;;;;;32.4;26.9;;;;;;;6.81;50.9248;961.8981;;;;
2019/04/13 05:20:09;;;;;;;34.7;27.5;;;;;;;6.96;50.50098;961.9258;;;;
2019/04/13 05:23:19;;;;;;;32.5;27.2;;;;;;;7.01;50.28516;961.9095;;;;
2019/04/13 05:26:29;;;;;;;37.7;29;;;;;;;6.98;50.72363;961.8537;;;;
2019/04/13 05:29:39;;;;;;;36.5;28.3;;;;;;;6.95;50.87207;961.8842;;;;
2019/04/13 05:32:50;;;;;;;34.1;27.3;;;;;;;7.15;50.46484;961.9691;;;;
2019/04/13 05:36:00;;;;;;;36.9;28.1;;;;;;;7.27;50.0957;961.9975;;;;
2019/04/13 05:39:10;;;;;;;33.8;27.9;;;;;;;7.34;49.84766;962.037;;;;
2019/04/13 05:42:20;;;;;;;36.9;28.2;;;;;;;7.28;50.01465;962.0481;;;;
2019/04/13 05:45:30;;;;;;;38.9;27.1;;;;;;;7.44;50.5;962.0897;;;;
2019/04/13 05:48:40;;;;;;;36;27.9;;;;;;;7.55;49.8252;962.0764;;;;
2019/04/13 05:51:50;;;;;;;36.3;28.4;;;;;;;7.44;49.7666;962.1376;;;;
2019/04/13 05:55:00;;;;;;;36;27.8;;;;;;;7.11;50.94922;962.1344;;;;
2019/04/13 05:58:11;;;;;;;35.6;27.2;;;;;;;7.44;50.2207;962.1635;;;;
2019/04/13 06:01:21;;;;;;;34.4;26.8;;;;;;;7.53;49.76465;962.1579;;;;
2019/04/13 06:04:31;;;;;;;34.4;27.6;;;;;;;7.35;49.81348;962.1356;;;;
2019/04/13 06:07:41;;;;;;;34.3;27.5;;;;;;;7.29;50.00293;962.1286;;;;
2019/04/13 06:10:52;;;;;;;34.6;28.1;;;;;;;7.18;50.87598;962.0845;;;;
2019/04/13 06:14:02;;;;;;;36;28.1;;;;;;;7.52;49.79785;962.0904;;;;
2019/04/13 06:17:20;;;;;;;37.4;26.9;;;;;;;7.52;50.06543;962.1552;;;;
2019/04/13 06:20:30;;;;;;;35.3;27.3;;;;;;;7.3;50.51855;962.1169;;;;
2019/04/13 06:23:40;;;;;;;43.6;26.9;;;;;;;7.44;50.20801;962.1429;;;;
2019/04/13 06:26:50;;;;;;;34.1;26.4;;;;;;;7.4;50.13379;962.2045;;;;
2019/04/13 06:30:12;;;;;;;32.5;25.7;;;;;;;7.25;49.89551;962.1331;;;;
2019/04/13 06:33:24;;;;;;;32.8;25.8;;;;;;;7.59;48.97949;962.1314;;;;
2019/04/13 06:36:34;;;;;;;31.4;25.8;;;;;;;7.79;48.39746;962.1548;;;;
2019/04/13 06:39:44;;;;;;;33.2;25.7;;;;;;;7.53;48.98438;962.1061;;;;
2019/04/13 06:42:54;;;;;;;30.7;25.2;;;;;;;7.45;48.42871;962.1325;;;;
2019/04/13 06:46:04;;;;;;;33.6;25.7;;;;;;;7.38;48.32813;962.2032;;;;
2019/04/13 06:49:15;;;;;;;29.8;24.6;;;;;;;7.54;48.55469;962.2175;;;;
2019/04/13 06:52:25;;;;;;;38.7;25.2;;;;;;;7.74;47.77539;962.1881;;;;
2019/04/13 06:55:35;;;;;;;32.1;25.3;;;;;;;7.84;47.34277;962.2072;;;;
2019/04/13 06:58:45;;;;;;;31.8;25.1;;;;;;;7.96;46.5293;962.2134;;;;
2019/04/13 07:01:55;;;;;;;31.6;25.4;;;;;;;8.05;46.77246;962.1633;;;;
2019/04/13 07:05:06;;;;;;;30.3;24.5;;;;;;;8.09;46.38086;962.1351;;;;
2019/04/13 07:08:20;;;;;;;31.4;24.4;;;;;;;8.48;45.74609;962.1105;;;;
2019/04/13 07:11:35;;;;;;;32.6;24.6;;;;;;;8.6;45.29297;962.1333;;;;
2019/04/13 07:14:45;;;;;;;31.7;24.2;;;;;;;8.37;44.6377;962.1372;;;;
2019/04/13 07:17:56;;;;;;;32.6;24.4;;;;;;;8.41;44.23438;962.1569;;;;
2019/04/13 07:21:06;;;;;;;30.4;24;;;;;;;8.28;44.98926;962.1479;;;;
2019/04/13 07:24:16;;;;;;;31.2;23.4;;;;;;;8.31;45.66895;962.2288;;;;
2019/04/13 07:27:26;;;;;;;28.7;23.4;;;;;;;8.61;44.25391;962.0594;;;;
2019/04/13 07:30:36;;;;;;;28.8;23;;;;;;;8.78;44.38867;962.0821;;;;
2019/04/13 07:33:46;;;;;;;28.1;22.9;;;;;;;8.81;43.68066;962.0421;;;;
2019/04/13 07:36:56;;;;;;;30.3;23.5;;;;;;;9.08;42.55078;962.0273;;;;
2019/04/13 07:40:06;;;;;;;28.3;22.5;;;;;;;9.23;41.8291;962.0289;;;;
2019/04/13 07:43:17;;;;;;;29.6;22.1;;;;;;;9.44;40.75098;961.997;;;;
2019/04/13 07:46:48;;;;;;;27.7;22;;;;;;;9.31;39.57031;962.0837;;;;
2019/04/13 07:53:12;;;;;;;25.3;21.2;;;;;;;10.26;38.15723;962.1778;;;;
2019/04/13 07:56:22;;;;;;;25.6;20.4;;;;;;;10.6;37.05078;962.1707;;;;
2019/04/13 07:59:32;;;;;;;25.9;21.7;;;;;;;10.84;36.8252;962.197;;;;
2019/04/13 08:02:42;;;;;;;26.3;21.4;;;;;;;10.76;35.91602;962.2028;;;;
2019/04/13 08:05:52;;;;;;;25.4;21.4;;;;;;;10.78;36.43359;962.1465;;;;
2019/04/13 08:09:02;;;;;;;24.2;20.6;;;;;;;10.95;36.14258;962.1655;;;;
2019/04/13 08:12:12;;;;;;;24.6;20.8;;;;;;;11;34.48047;962.1652;;;;
2019/04/13 08:15:22;;;;;;;23;19.9;;;;;;;10.96;34.17188;962.1678;;;;
2019/04/13 08:18:39;;;;;;;25.9;19.7;;;;;;;11.39;34.03027;962.1358;;;;
2019/04/13 08:21:50;;;;;;;24.7;20.2;;;;;;;11.65;33.62793;962.0623;;;;
2019/04/13 08:24:59;;;;;;;25.8;20.8;;;;;;;11.45;33.96484;962.0584;;;;
2019/04/13 08:28:09;;;;;;;23.3;19.9;;;;;;;11.09;33.59668;962.1309;;;;
2019/04/13 08:31:19;;;;;;;26.9;19.7;;;;;;;11.23;33.18457;962.0455;;;;
2019/04/13 08:34:29;;;;;;;26.3;20.4;;;;;;;11.25;33.38574;962.0598;;;;
2019/04/13 08:37:39;;;;;;;25.1;20.4;;;;;;;11.15;33.47168;962.038;;;;
2019/04/13 08:40:49;;;;;;;27.9;20.9;;;;;;;11.29;33.02539;961.9694;;;;
2019/04/13 08:43:59;;;;;;;24.5;20.6;;;;;;;11.15;34.12891;962.0211;;;;
2019/04/13 08:47:09;;;;;;;28.5;21.6;;;;;;;11.28;33.85645;961.9163;;;;
2019/04/13 08:50:19;;;;;;;26.1;20.6;;;;;;;11.62;33.37891;961.9114;;;;
2019/04/13 08:53:28;;;;;;;25;20.2;;;;;;;11.47;33.00293;961.8772;;;;
2019/04/13 08:56:40;;;;;;;30.3;21.3;;;;;;;11.44;32.93066;961.8697;;;;
2019/04/13 08:59:50;;;;;;;26.7;20.8;;;;;;;11.93;33.7207;961.895;;;;
2019/04/13 09:02:59;;;;;;;24.5;20.3;;;;;;;11.56;33.18555;962.0003;;;;
2019/04/13 09:06:09;;;;;;;23.9;19.8;;;;;;;11.39;32.09277;961.913;;;;
2019/04/13 09:09:19;;;;;;;25.4;20.9;;;;;;;11.88;32.21191;961.8601;;;;
2019/04/13 09:12:29;;;;;;;26.4;21.1;;;;;;;11.89;32.21191;961.8549;;;;
2019/04/13 09:15:39;;;;;;;26.7;20.2;;;;;;;12.1;32.55664;961.7563;;;;
2019/04/13 09:19:06;;;;;;;25;19.6;;;;;;;12.71;32.54395;961.7747;;;;
2019/04/13 09:22:19;;;;;;;26.4;19.6;;;;;;;12.38;30.85938;961.7393;;;;
2019/04/13 09:25:29;;;;;;;24.6;20.1;;;;;;;12.49;30.66699;961.7629;;;;
2019/04/13 09:28:39;;;;;;;23.6;19.6;;;;;;;12.57;30.02539;961.7791;;;;
2019/04/13 09:31:48;;;;;;;27.6;20.2;;;;;;;12.71;30.05957;961.6258;;;;
2019/04/13 09:34:58;;;;;;;23.1;19.7;;;;;;;12.61;29.91016;961.7068;;;;
2019/04/13 09:38:08;;;;;;;25.6;19.5;;;;;;;13.33;30.11328;961.6038;;;;
2019/04/13 09:41:18;;;;;;;24.8;20.3;;;;;;;13.21;29.5625;961.4733;;;;
2019/04/13 09:44:29;;;;;;;25;20.1;;;;;;;13.27;29.53125;961.4658;;;;
2019/04/13 09:47:39;;;;;;;24.9;18.6;;;;;;;13.86;29.20508;961.3806;;;;
2019/04/13 09:50:48;;;;;;;22.4;19.4;;;;;;;14.04;28.79199;961.4392;;;;
2019/04/13 09:53:58;;;;;;;24.7;20;;;;;;;14;29.37988;961.4164;;;;
2019/04/13 09:57:08;;;;;;;24.9;20.6;;;;;;;13.82;29.08398;961.324;;;;
2019/04/13 10:00:19;;;;;;;25.2;20.4;;;;;;;13.59;28.67969;961.4023;;;;
2019/04/13 10:03:29;;;;;;;26.2;20.9;;;;;;;13.16;29.35938;961.2426;;;;
2019/04/13 10:06:39;;;;;;;24.3;19.7;;;;;;;13.66;30.0293;961.2232;;;;
2019/04/13 10:09:49;;;;;;;25.1;19.4;;;;;;;14.04;30.31641;961.2075;;;;
2019/04/13 10:13:10;;;;;;;25.2;19;;;;;;;13.99;29.19043;961.2869;;;;
2019/04/13 10:16:32;;;;;;;23.7;20.5;;;;;;;13.98;29.21387;961.1482;;;;
2019/04/13 10:19:42;;;;;;;23.7;19.7;;;;;;;13.98;28.84766;961.1967;;;;
2019/04/13 10:22:52;;;;;;;40.4;21.4;;;;;;;14.11;29.29297;961.1499;;;;
2019/04/13 10:26:02;;;;;;;28.4;19.5;;;;;;;13.75;29.05664;961.1103;;;;
2019/04/13 10:29:12;;;;;;;26.5;21.1;;;;;;;13.98;29.1416;961.058;;;;
2019/04/13 10:32:22;;;;;;;24.2;20.6;;;;;;;14.68;28.31348;960.9545;;;;
2019/04/13 10:35:31;;;;;;;28.7;21.4;;;;;;;14.68;27.94727;960.9623;;;;
2019/04/13 10:38:41;;;;;;;26.2;21.5;;;;;;;14.17;28.5166;960.9903;;;;
2019/04/13 10:41:51;;;;;;;27.1;22.3;;;;;;;14.72;27.98535;961.0073;;;;
2019/04/13 10:45:24;;;;;;;26.8;22;;;;;;;14.65;28.09961;960.9326;;;;
2019/04/13 10:48:51;;;;;;;29.3;22.3;;;;;;;14.9;29.5;960.9157;;;;
2019/04/13 10:52:04;;;;;;;26.5;21.7;;;;;;;13.93;29.9668;961.0053;;;;
2019/04/13 10:55:14;;;;;;;27.7;21.2;;;;;;;14.16;29.03711;960.9485;;;;
2019/04/13 10:58:23;;;;;;;27.7;22.3;;;;;;;14.25;28.93555;960.9235;;;;
2019/04/13 11:01:33;;;;;;;30;22.3;;;;;;;13.63;29.2373;960.8667;;;;
2019/04/13 11:04:43;;;;;;;25.8;22.1;;;;;;;13.86;29.26465;960.8049;;;;
2019/04/13 11:07:53;;;;;;;26.4;21.6;;;;;;;14.45;28.94922;960.8112;;;;
2019/04/13 11:11:03;;;;;;;25.3;21.3;;;;;;;14.67;28.21777;960.7424;;;;
2019/04/13 11:14:13;;;;;;;27.4;21.5;;;;;;;15.14;27.57324;960.681;;;;
2019/04/13 11:17:23;;;;;;;28.2;22.6;;;;;;;15.54;27.10059;960.7031;;;;
2019/04/13 11:20:33;;;;;;;30.5;22.8;;;;;;;15.02;25.2334;960.6731;;;;
2019/04/13 11:23:43;;;;;;;26.2;21.4;;;;;;;14.87;27.20117;960.6202;;;;
2019/04/13 11:26:53;;;;;;;25.3;22.4;;;;;;;14.95;28.34277;960.5385;;;;
2019/04/13 11:30:03;;;;;;;38.5;26.1;;;;;;;14.74;27.47754;960.5705;;;;
2019/04/13 11:33:13;;;;;;;31.9;23.2;;;;;;;14.98;27.88281;960.5602;;;;
2019/04/13 11:36:23;;;;;;;26.8;22.6;;;;;;;15.29;26.74219;960.5109;;;;
2019/04/13 11:39:33;;;;;;;31.2;23.1;;;;;;;15.4;26.46387;960.4807;;;;
2019/04/13 11:49:29;;;;;;;26.9;22.8;;;;;;;14.93;25.9502;960.4418;;;;
2019/04/13 11:52:40;;;;;;;26.8;21.8;;;;;;;15.2;26.53516;960.4592;;;;
2019/04/13 11:55:50;;;;;;;27.4;22.6;;;;;;;14.93;27.06348;960.4548;;;;
2019/04/13 11:59:00;;;;;;;29.1;23.3;;;;;;;14.95;27.17188;960.4634;;;;
2019/04/13 12:02:22;;;;;;;26.3;22.4;;;;;;;14.41;26.81836;960.4741;;;;
2019/04/13 12:05:37;;;;;;;27.4;23.3;;;;;;;14.03;27.55078;960.4328;;;;
2019/04/13 12:08:58;;;;;;;27.1;22.8;;;;;;;14.23;28.32031;960.4329;;;;
2019/04/13 12:12:20;;;;;;;32.2;23.6;;;;;;;14.17;28.80078;960.392;;;;
2019/04/13 12:27:00;;;;;;;26.3;22.8;;;;;;;14.35;28.18555;960.3851;;;;
2019/04/13 12:30:16;;;;;;;28.7;23.8;;;;;;;13.57;29.37402;960.3339;;;;
2019/04/13 12:33:26;;;;;;;28.3;22.9;;;;;;;13.92;28.59473;960.2961;;;;
2019/04/13 12:36:36;;;;;;;28.2;24;;;;;;;14.11;28.93848;960.2297;;;;
2019/04/13 12:39:47;;;;;;;29.8;24.3;;;;;;;13.93;29.60059;960.1809;;;;
2019/04/13 12:42:57;;;;;;;30.1;24.6;;;;;;;13.99;30.1123;960.2098;;;;
2019/04/13 12:46:07;;;;;;;28.9;24.5;;;;;;;14.03;28.98047;960.1972;;;;
2019/04/13 12:49:17;;;;;;;29.9;25.4;;;;;;;13.77;29.23438;960.1996;;;;
2019/04/13 12:52:27;;;;;;;29.8;24.7;;;;;;;13.23;30.60156;960.2272;;;;
2019/04/13 12:55:37;;;;;;;29;24.3;;;;;;;13.74;29.45703;960.0733;;;;
2019/04/13 12:58:47;;;;;;;31.1;25.1;;;;;;;13.69;30.39844;960.0754;;;;
2019/04/13 13:05:26;;;;;;;32;23.9;;;;;;;13.97;29.7207;960.1118;;;;
2019/04/13 13:08:37;;;;;;;31;24.4;;;;;;;14.17;29.78125;960.0661;;;;
2019/04/13 13:11:47;;;;;;;29.6;24.6;;;;;;;14.17;29.75781;959.9916;;;;
2019/04/13 13:14:57;;;;;;;27.7;23.6;;;;;;;14.07;29.14746;960.0251;;;;
2019/04/13 13:18:07;;;;;;;28.2;23.9;;;;;;;14.55;28.9082;959.913;;;;
2019/04/13 13:21:17;;;;;;;27.6;24.1;;;;;;;14.66;28.22949;959.8267;;;;
2019/04/13 13:24:27;;;;;;;29.6;24.2;;;;;;;14.6;28.73438;959.9697;;;;
2019/04/13 13:27:36;;;;;;;31.4;24.9;;;;;;;14.1;28.66602;959.8253;;;;
2019/04/13 13:30:46;;;;;;;29.4;24.6;;;;;;;13.82;29.30859;959.8979;;;;
2019/04/13 13:33:56;;;;;;;29.8;24.3;;;;;;;13.47;29.17969;959.899;;;;
2019/04/13 15:01:24;;;;;;;30.4;25.7;;;;;;;14.65;33.5293;959.5457;;;;
2019/04/13 15:09:10;;;;;;;31.4;25.8;;;;;;;14.01;29.87695;959.5774;;;;
2019/04/13 15:12:20;;;;;;;28.9;24.5;;;;;;;13.7;30.04492;959.5364;;;;
2019/04/13 15:15:30;;;;;;;33.4;26.6;;;;;;;13.09;30.93359;959.623;;;;
2019/04/13 15:18:44;;;;;;;31.3;25.9;;;;;;;13.23;30.84961;959.6167;;;;
2019/04/13 15:21:55;;;;;;;32.4;25.9;;;;;;;13.62;30.39258;959.5353;;;;
2019/04/13 15:25:05;;;;;;;30.6;24.8;;;;;;;13.16;31.38672;959.4966;;;;
2019/04/13 15:28:15;;;;;;;32.7;26.4;;;;;;;13.26;31.13477;959.5064;;;;
2019/04/13 15:31:25;;;;;;;30.7;25.5;;;;;;;13.31;30.86621;959.49;;;;
2019/04/13 15:34:35;;;;;;;33.3;26.1;;;;;;;13.02;31.60059;959.5183;;;;
2019/04/13 15:37:45;;;;;;;32.1;26.5;;;;;;;12.86;31.90723;959.5705;;;;
2019/04/13 15:40:56;;;;;;;32.1;26.3;;;;;;;12.93;31.68848;959.5131;;;;
2019/04/13 15:44:06;;;;;;;31.7;25.6;;;;;;;12.99;32.16504;959.4963;;;;
2019/04/13 15:47:16;;;;;;;32.7;26.2;;;;;;;13.07;32.38184;959.4127;;;;
2019/04/13 15:50:26;;;;;;;30.9;25.9;;;;;;;12.94;32.37305;959.4581;;;;
2019/04/13 15:53:36;;;;;;;32.2;25.8;;;;;;;12.84;31.78809;959.4203;;;;
2019/04/13 15:56:46;;;;;;;31.7;26.1;;;;;;;12.98;32.33984;959.481;;;;
2019/04/13 15:59:57;;;;;;;30;25.1;;;;;;;13.2;32.0498;959.4972;;;;
2019/04/13 16:03:07;;;;;;;32.7;26;;;;;;;13.11;31.56055;959.5535;;;;
2019/04/13 16:06:17;;;;;;;32.5;26.2;;;;;;;13.1;31.6416;959.4559;;;;
2019/04/13 16:13:39;;;;;;;30.8;25.3;;;;;;;12.97;32.29199;959.6365;;;;
2019/04/13 16:16:49;;;;;;;33.6;25.4;;;;;;;13.18;31.28223;959.7483;;;;
2019/04/13 16:19:59;;;;;;;30;25.3;;;;;;;12.99;32.24707;959.7592;;;;
2019/04/13 16:23:09;;;;;;;33.2;26;;;;;;;13.15;31.33887;959.8116;;;;
2019/04/13 16:26:19;;;;;;;31.4;25.3;;;;;;;13.03;31.21289;959.838;;;;
2019/04/13 16:35:50;;;;;;;33.4;26.6;;;;;;;12.9;33.80762;959.8233;;;;
2019/04/13 16:39:00;;;;;;;35;27.2;;;;;;;12.83;33.9082;959.9367;;;;
2019/04/13 16:42:10;;;;;;;34.2;26.9;;;;;;;12.93;34.375;959.9703;;;;
2019/04/13 16:46:07;;;;;;;36.5;29.3;;;;;;;12.95;33.85742;960.0108;;;;
2019/04/13 16:49:29;;;;;;;36.2;29.2;;;;;;;12.93;34.89453;960.0696;;;;
2019/04/13 16:52:51;;;;;;;33.7;28.5;;;;;;;12.37;34.35449;960.1181;;;;
2019/04/13 16:56:08;;;;;;;49.9;40.5;;;;;;;11.89;37.64355;960.2806;;;;
2019/04/13 17:00:19;;;;;;;38.9;32.9;;;;;;;12.19;38.18652;960.1609;;;;
2019/04/13 17:06:07;;;;;;;35.3;29.4;;;;;;;12.35;37.4834;960.2008;;;;
2019/04/13 17:09:17;;;;;;;34.5;27.3;;;;;;;12.42;37.9375;960.1828;;;;
2019/04/13 17:12:27;;;;;;;36.4;27.4;;;;;;;12.44;37.69141;960.1877;;;;
2019/04/13 17:15:37;;;;;;;31.8;27.1;;;;;;;12.21;39.22363;960.2519;;;;
2019/04/13 17:18:05;;;;;;;36.3;28.7;;;;;;;11.58;40.49414;960.2156;;;;
2019/04/13 17:20:39;;;;;;;37.2;27.8;;;;;;;11.85;39.9082;960.2758;;;;
2019/04/13 17:25:22;;;;;;;31.4;27;;;;;;;12.16;38.84375;960.2524;;;;
2019/04/13 17:27:52;;;;;;;35.1;29.7;;;;;;;12.24;38.88574;960.2032;;;;
2019/04/13 17:30:52;;;;;;;33;28.1;;;;;;;12.12;38.42871;960.1942;;;;
2019/04/13 17:32:35;;;;;;;33.8;27.4;;;;;;;12.19;38.32813;960.3084;;;;
2019/04/13 17:35:01;;;;;;;33.3;28;;;;;;;12.03;38.87988;960.228;;;;
2019/04/13 17:37:22;;;;;;;34.2;28.3;;;;;;;11.71;38.82715;960.2523;;;;
2019/04/13 17:39:47;;;;;;;35.1;28.2;;;;;;;11.87;38.73535;960.3237;;;;
2019/04/13 17:44:38;;;;;;;37.4;29;;;;;;;12.14;38.41797;960.2921;;;;
2019/04/13 17:47:28;;;;;;;33.6;28.1;;;;;;;12.1;37.81445;960.2989;;;;
2019/04/13 17:50:09;;;;;;;35.6;28;;;;;;;12.1;37.63867;960.3198;;;;
2019/04/13 17:52:31;;;;;;;32.6;28;;;;;;;11.82;38.87207;960.2928;;;;
2019/04/13 17:54:31;;;;;;;35.5;28.2;;;;;;;11.78;38.37402;960.2661;;;;
2019/04/13 17:56:43;;;;;;;33.9;27.7;;;;;;;11.94;37.89453;960.2368;;;;
2019/04/13 18:08:43;;;;;;;34;28.5;;;;;;;11.73;38.22852;960.2757;;;;
2019/04/13 18:10:52;;;;;;;36.6;29;;;;;;;11.91;37.64551;960.3206;;;;
2019/04/13 18:15:42;;;;;;;37.2;27.5;;;;;;;11.64;38.00879;960.344;;;;
2019/04/13 18:18:05;;;;;;;33;26.9;;;;;;;11.61;38.44141;960.3705;;;;
2019/04/13 18:20:27;;;;;;;34.4;27.9;;;;;;;11.79;38.11719;960.3636;;;;
2019/04/13 18:22:55;;;;;;;35.7;27.7;;;;;;;11.88;37.95996;960.4397;;;;
2019/04/13 18:25:20;;;;;;;33.9;27.2;;;;;;;11.86;37.66504;960.4945;;;;
2019/04/13 18:27:45;;;;;;;32.9;27.5;;;;;;;11.86;37.52344;960.4202;;;;
2019/04/13 18:30:11;;;;;;;33.1;26.2;;;;;;;11.83;37.65039;960.4167;;;;
2019/04/13 18:32:36;;;;;;;34.4;29.1;;;;;;;11.67;37.95313;960.5419;;;;
2019/04/13 18:35:01;;;;;;;31.2;25.9;;;;;;;11.66;38.21094;960.5486;;;;
2019/04/13 18:37:26;;;;;;;31.8;27.1;;;;;;;11.43;39.03711;960.5859;;;;
2019/04/13 18:39:51;;;;;;;32.5;27.6;;;;;;;11.42;38.55371;960.6484;;;;
2019/04/13 18:42:16;;;;;;;34.5;27.6;;;;;;;11.38;38.66895;960.6983;;;;
2019/04/13 18:44:41;;;;;;;33.1;27.6;;;;;;;11.59;38.21777;960.725;;;;
2019/04/13 18:47:06;;;;;;;34.5;27.5;;;;;;;11.72;38.02832;960.6891;;;;
2019/04/13 18:49:32;;;;;;;31.8;27.3;;;;;;;11.87;37.5127;960.7019;;;;
2019/04/13 18:51:57;;;;;;;33.4;27.7;;;;;;;11.83;37.86133;960.7388;;;;
2019/04/13 18:54:22;;;;;;;32.2;27.5;;;;;;;11.7;38.32031;960.7374;;;;
2019/04/13 18:56:47;;;;;;;32.8;26.6;;;;;;;11.67;38.35254;960.743;;;;
2019/04/13 18:59:12;;;;;;;34;27;;;;;;;11.7;37.95703;960.8494;;;;
2019/04/13 19:01:38;;;;;;;33.4;27.3;;;;;;;11.51;38.19727;960.9411;;;;
2019/04/13 19:04:03;;;;;;;37.6;27.6;;;;;;;11.4;38.37695;960.899;;;;
2019/04/13 19:06:28;;;;;;;34.9;28;;;;;;;11.58;38.46289;960.9183;;;;
2019/04/13 19:08:53;;;;;;;35.8;27.8;;;;;;;11.37;38.81934;960.9655;;;;
2019/04/13 19:11:18;;;;;;;35.2;27.9;;;;;;;11.34;39.47461;960.9489;;;;
2019/04/13 19:13:44;;;;;;;34.3;27.7;;;;;;;11.43;39.78809;961.0069;;;;
2019/04/13 19:16:09;;;;;;;35.2;27.6;;;;;;;11.52;39.49121;961.0871;;;;
2019/04/13 19:18:34;;;;;;;35.4;26.7;;;;;;;11.59;39.37988;961.0786;;;;
2019/04/13 19:20:59;;;;;;;33.6;27.8;;;;;;;11.39;39.47852;961.1753;;;;
2019/04/13 19:23:24;;;;;;;32.8;27.7;;;;;;;11.08;40.09668;961.1605;;;;
2019/04/13 19:25:52;;;;;;;34;27.6;;;;;;;11.19;40.4707;961.1102;;;;
2019/04/13 19:28:17;;;;;;;34.1;28.1;;;;;;;11.46;39.94434;961.1317;;;;
2019/04/13 19:30:43;;;;;;;37;29.3;;;;;;;11.46;40.12012;961.223;;;;
2019/04/13 19:33:08;;;;;;;37.7;30;;;;;;;11.6;39.94531;961.1931;;;;
2019/04/13 19:35:33;;;;;;;35.1;29.3;;;;;;;11.14;39.77344;961.2277;;;;
2019/04/13 19:37:59;;;;;;;37.4;30.1;;;;;;;10.97;40.69629;961.1846;;;;
2019/04/13 19:40:25;;;;;;;35.7;29.8;;;;;;;10.95;41.09277;961.319;;;;
2019/04/13 19:42:52;;;;;;;38.7;30.2;;;;;;;11.1;41.20117;961.3272;;;;
2019/04/13 19:45:17;;;;;;;39;30.2;;;;;;;11.19;43.95703;961.3187;;;;
2019/04/13 19:47:42;;;;;;;36.8;29.7;;;;;;;11.29;43.81445;961.3494;;;;
2019/04/13 19:50:08;;;;;;;36.1;30.3;;;;;;;11.34;44.2998;961.3318;;;;
2019/04/13 19:52:41;;;;;;;36.3;30.2;;;;;;;11.27;43.69434;961.322;;;;
2019/04/13 19:55:02;;;;;;;36;29.8;;;;;;;11.31;45.42383;961.3022;;;;
2019/04/13 19:57:29;;;;;;;36.6;29.3;;;;;;;11.28;45.25684;961.3286;;;;
2019/04/13 19:59:54;;;;;;;37.7;29.3;;;;;;;11.27;44.22266;961.3572;;;;
2019/04/13 20:02:22;;;;;;;34.6;29.8;;;;;;;10.61;46.28906;961.2751;;;;
2019/04/13 20:04:45;;;;;;;39.5;31.8;;;;;;;10.58;46.29785;961.4052;;;;